Time;durP1;ratioP1;P1;durP2;ratioP2;P2;SDS_P1;SDS_P2;PMS_P1;PMS_P2;Temp;Humidity;BMP_temperature;BMP_pressure;BME280_temperature;BME280_humidity;BME280_pressure;Samples;Min_cycle;Max_cycle;Signal;HPM_P1;HPM_P2
2022/11/09 00:01:38;;;;;;;0.98;0.30;;;;;;;12.31;61.15;100167.94;4977446;28;20391;-47
2022/11/09 00:04:05;;;;;;;2.45;0.28;;;;;;;12.21;60.83;100169.59;4975737;28;20030;-51
2022/11/09 00:06:33;;;;;;;1.92;0.20;;;;;;;12.24;60.44;100179.88;4988243;28;20050;-48
2022/11/09 00:09:01;;;;;;;2.03;0.40;;;;;;;12.13;60.52;100182.31;4991395;28;20034;-48
2022/11/09 00:11:27;;;;;;;4.80;1.65;;;;;;;12.17;61.39;100184.53;4992324;28;20037;-49
2022/11/09 00:13:53;;;;;;;4.43;0.47;;;;;;;12.15;61.85;100188.25;4992623;28;20400;-51
2022/11/09 00:16:21;;;;;;;0.63;0.30;;;;;;;12.16;62.02;100183.72;4992573;28;20030;-51
2022/11/09 00:18:48;;;;;;;0.73;0.30;;;;;;;12.32;61.71;100195.59;4992841;28;20452;-48
2022/11/09 00:21:16;;;;;;;0.73;0.30;;;;;;;12.23;62.10;100197.03;4992325;28;20030;-48
2022/11/09 00:23:43;;;;;;;0.98;0.30;;;;;;;12.22;63.33;100201.56;4992540;28;20026;-48
2022/11/09 00:26:11;;;;;;;1.45;0.30;;;;;;;12.26;63.39;100208.09;4992608;28;20537;-49
2022/11/09 00:28:38;;;;;;;1.77;0.22;;;;;;;12.28;63.69;100207.88;4992386;28;20065;-51
2022/11/09 00:31:07;;;;;;;1.02;0.22;;;;;;;12.27;64.24;100214.25;4992331;28;20479;-48
2022/11/09 00:33:33;;;;;;;0.82;0.30;;;;;;;12.14;64.45;100220.69;4985089;28;20038;-51
2022/11/09 00:36:06;;;;;;;2.25;0.30;;;;;;;12.11;64.69;100218.47;4992459;28;20505;-50
2022/11/09 00:38:33;;;;;;;1.38;0.35;;;;;;;12.16;64.71;100229.34;4992500;28;20053;-49
2022/11/09 00:41:04;;;;;;;0.30;0.22;;;;;;;12.13;64.17;100224.41;4992114;28;20101;-48
2022/11/09 00:43:30;;;;;;;2.47;0.45;;;;;;;12.10;64.92;100224.88;4995483;28;20022;-50
2022/11/09 00:45:56;;;;;;;1.27;0.40;;;;;;;11.95;64.55;100229.88;4996342;28;20030;-47
2022/11/09 00:48:23;;;;;;;0.55;0.40;;;;;;;11.99;64.27;100233.69;4996175;28;20077;-47
2022/11/09 00:50:56;;;;;;;1.25;0.20;;;;;;;11.93;64.26;100232.75;4996119;28;20023;-51
2022/11/09 00:53:23;;;;;;;1.17;0.30;;;;;;;11.86;64.29;100230.19;4996205;28;20084;-48
2022/11/09 00:55:54;;;;;;;1.73;0.60;;;;;;;11.77;64.69;100236.06;4996140;28;20041;-52
2022/11/09 00:58:21;;;;;;;0.70;0.30;;;;;;;11.67;65.48;100242.00;4996099;28;20109;-50
2022/11/09 01:00:47;;;;;;;1.08;0.30;;;;;;;11.75;66.02;100244.34;4994784;28;20517;-49
2022/11/09 01:03:13;;;;;;;1.95;0.35;;;;;;;11.80;65.34;100239.13;4996072;28;20136;-48
2022/11/09 01:05:40;;;;;;;1.58;0.70;;;;;;;11.64;65.85;100237.06;4995795;28;20054;-52
2022/11/09 01:08:06;;;;;;;0.93;0.57;;;;;;;11.47;65.93;100244.13;4981016;28;20385;-52
2022/11/09 01:10:33;;;;;;;0.80;0.40;;;;;;;11.59;66.30;100247.66;4976124;28;20168;-47
2022/11/09 01:12:59;;;;;;;3.00;0.60;;;;;;;11.56;66.03;100250.81;4975833;28;20031;-49
2022/11/09 01:15:26;;;;;;;2.10;0.85;;;;;;;11.47;66.37;100260.19;4976362;28;20093;-52
2022/11/09 01:17:52;;;;;;;2.53;0.60;;;;;;;11.35;66.17;100266.31;4975693;28;20026;-52
2022/11/09 01:20:18;;;;;;;3.20;0.50;;;;;;;11.33;65.90;100276.44;4975963;28;20023;-51
2022/11/09 01:22:44;;;;;;;2.50;0.47;;;;;;;11.33;66.14;100279.13;4979427;28;20031;-48
2022/11/09 01:25:10;;;;;;;3.63;0.80;;;;;;;11.40;66.08;100280.91;4987410;28;20027;-46
2022/11/09 01:27:37;;;;;;;1.50;0.50;;;;;;;11.49;65.82;100282.22;4975858;28;20073;-46
2022/11/09 01:30:03;;;;;;;1.63;0.40;;;;;;;11.54;65.85;100285.03;4989564;28;20026;-46
2022/11/09 01:32:32;;;;;;;1.48;0.30;;;;;;;11.55;66.11;100286.69;4985505;28;20041;-48
2022/11/09 01:34:58;;;;;;;2.88;0.40;;;;;;;11.43;66.99;100291.97;4974394;28;20031;-48
2022/11/09 01:37:25;;;;;;;0.98;0.20;;;;;;;11.47;64.53;100295.03;4978062;28;20402;-47
2022/11/09 01:39:51;;;;;;;0.35;0.10;;;;;;;11.21;63.25;100296.16;4977835;28;20029;-48
2022/11/09 01:42:23;;;;;;;1.00;0.28;;;;;;;11.21;63.84;100296.16;4994709;28;20109;-47
2022/11/09 01:45:28;;;;;;;2.13;0.30;;;;;;;11.14;63.87;100308.81;4993635;28;20033;-47
2022/11/09 01:48:08;;;;;;;1.38;0.30;;;;;;;11.11;64.87;100315.44;4994911;28;20034;-47
2022/11/09 01:50:47;;;;;;;1.90;0.30;;;;;;;11.10;65.26;100320.00;4993273;28;20482;-47
2022/11/09 01:53:18;;;;;;;1.48;0.30;;;;;;;10.95;66.10;100319.50;4984450;28;20116;-47
2022/11/09 01:55:48;;;;;;;1.00;0.35;;;;;;;11.02;65.90;100317.59;4999393;23;20069;-47
2022/11/09 01:58:20;;;;;;;3.67;0.60;;;;;;;11.13;66.40;100326.75;4976520;28;20033;-49
2022/11/09 02:00:49;;;;;;;3.45;0.60;;;;;;;11.09;66.98;100338.94;4975168;28;20023;-48
2022/11/09 02:03:34;;;;;;;2.20;0.57;;;;;;;11.09;67.62;100336.25;4975100;28;20023;-46
2022/11/09 02:06:04;;;;;;;2.90;0.60;;;;;;;11.15;67.46;100343.41;4975448;28;20042;-47
2022/11/09 02:08:30;;;;;;;2.15;0.70;;;;;;;11.26;67.38;100358.75;4977389;28;20390;-47
2022/11/09 02:11:08;;;;;;;1.70;0.40;;;;;;;11.29;66.66;100363.66;4986772;28;20053;-48
2022/11/09 02:13:37;;;;;;;3.10;0.40;;;;;;;11.16;66.79;100371.84;4991473;28;20173;-49
2022/11/09 02:16:04;;;;;;;1.13;0.40;;;;;;;11.16;66.99;100373.69;4982043;28;20379;-45
2022/11/09 02:18:31;;;;;;;2.03;0.50;;;;;;;11.23;66.87;100379.81;4989450;28;20030;-49
2022/11/09 02:20:58;;;;;;;1.25;0.55;;;;;;;11.05;67.36;100378.75;4974645;28;20243;-44
2022/11/09 02:23:28;;;;;;;1.73;0.40;;;;;;;11.13;67.12;100398.25;4983447;28;20041;-45
2022/11/09 02:26:03;;;;;;;1.40;0.50;;;;;;;11.15;67.47;100394.28;4994209;28;20030;-48
2022/11/09 02:28:31;;;;;;;2.17;0.45;;;;;;;11.18;67.27;100403.75;4983830;28;20026;-46
2022/11/09 02:30:58;;;;;;;1.48;0.40;;;;;;;11.15;67.01;100396.97;4974811;28;20027;-49
2022/11/09 02:33:24;;;;;;;2.63;0.40;;;;;;;11.08;68.08;100397.03;4990937;28;20053;-50
2022/11/09 02:35:50;;;;;;;1.08;0.30;;;;;;;11.04;68.33;100386.97;4983451;28;20026;-51
2022/11/09 02:38:17;;;;;;;1.33;0.40;;;;;;;11.00;68.41;100391.97;4974629;28;20444;-49
2022/11/09 02:40:47;;;;;;;3.20;0.50;;;;;;;11.07;68.34;100398.09;4975649;28;20031;-50
2022/11/09 02:43:14;;;;;;;1.52;0.30;;;;;;;11.08;68.39;100396.22;4993604;28;20077;-52
2022/11/09 02:45:41;;;;;;;2.33;0.50;;;;;;;11.13;68.71;100401.75;4986901;28;20034;-52
2022/11/09 02:48:07;;;;;;;2.10;0.80;;;;;;;11.17;68.50;100396.78;4993304;28;20027;-51
2022/11/09 02:50:35;;;;;;;1.92;0.80;;;;;;;11.14;68.90;100395.34;4986176;28;20034;-51
2022/11/09 02:53:01;;;;;;;1.77;0.60;;;;;;;11.25;69.41;100397.28;4982382;28;20130;-48
2022/11/09 02:55:27;;;;;;;2.78;0.70;;;;;;;11.25;69.96;100391.13;4973988;28;20109;-48
2022/11/09 02:57:53;;;;;;;2.05;0.57;;;;;;;11.25;69.60;100401.84;4974541;28;20059;-50
2022/11/09 03:00:19;;;;;;;1.70;0.50;;;;;;;11.19;69.65;100403.53;4974372;28;20479;-52
2022/11/09 03:02:45;;;;;;;1.35;0.80;;;;;;;11.45;69.27;100401.66;4961436;28;20560;-50
2022/11/09 03:05:12;;;;;;;1.27;0.63;;;;;;;11.24;69.59;100405.56;4992675;28;20030;-53
2022/11/09 03:07:38;;;;;;;0.95;0.70;;;;;;;11.42;69.25;100405.56;4975307;28;20569;-52
2022/11/09 03:10:05;;;;;;;2.10;0.60;;;;;;;11.23;69.75;100404.75;4979226;28;20375;-52
2022/11/09 03:12:31;;;;;;;3.08;0.57;;;;;;;11.19;69.98;100410.75;4990141;28;20032;-53
2022/11/09 03:15:03;;;;;;;4.75;1.13;;;;;;;11.18;70.25;100407.25;4993344;28;20038;-51
2022/11/09 03:17:31;;;;;;;1.92;0.80;;;;;;;11.08;70.71;100404.25;4993268;28;20053;-53
2022/11/09 03:19:57;;;;;;;2.78;0.60;;;;;;;11.17;70.81;100413.66;4993227;28;20018;-51
2022/11/09 03:22:23;;;;;;;2.15;0.55;;;;;;;11.16;70.66;100420.06;4992613;28;20030;-51
2022/11/09 03:24:50;;;;;;;2.08;0.65;;;;;;;11.10;70.79;100431.63;4981348;28;20032;-54
2022/11/09 03:27:16;;;;;;;1.00;0.60;;;;;;;11.22;70.71;100426.41;4992944;28;20494;-51
2022/11/09 03:29:43;;;;;;;0.95;0.68;;;;;;;11.10;70.36;100440.50;4991870;28;20450;-52
2022/11/09 03:32:09;;;;;;;2.65;0.70;;;;;;;11.13;69.95;100439.25;4973341;28;20187;-51
2022/11/09 03:34:35;;;;;;;0.85;0.50;;;;;;;11.15;70.20;100434.47;4973474;28;20022;-52
2022/11/09 03:37:02;;;;;;;2.67;0.57;;;;;;;11.00;70.75;100434.00;4970598;28;20041;-52
2022/11/09 03:39:28;;;;;;;1.00;0.70;;;;;;;11.00;71.00;100444.72;4969190;28;20062;-52
2022/11/09 03:41:54;;;;;;;1.77;0.70;;;;;;;11.02;71.13;100448.00;4978278;28;20029;-51
2022/11/09 03:44:29;;;;;;;4.00;0.77;;;;;;;10.96;71.32;100456.91;4973278;28;20031;-52
2022/11/09 03:46:55;;;;;;;0.97;0.40;;;;;;;10.94;71.04;100461.63;4973424;28;20065;-52
2022/11/09 03:49:22;;;;;;;1.25;0.30;;;;;;;10.84;70.51;100462.13;4973094;28;20261;-52
2022/11/09 03:51:50;;;;;;;1.13;0.30;;;;;;;10.86;69.33;100464.59;4987264;28;20033;-52
2022/11/09 03:54:16;;;;;;;0.68;0.50;;;;;;;10.59;69.49;100470.09;4990660;28;20103;-52
2022/11/09 03:56:45;;;;;;;2.90;0.40;;;;;;;10.53;69.89;100469.09;4972849;28;20043;-52
2022/11/09 03:59:11;;;;;;;1.65;0.50;;;;;;;10.48;70.00;100468.94;4970657;28;20049;-50
2022/11/09 04:01:38;;;;;;;3.08;0.40;;;;;;;10.37;70.72;100458.91;4972914;28;20042;-51
2022/11/09 04:04:04;;;;;;;0.55;0.20;;;;;;;10.20;71.84;100455.06;4973251;28;20054;-51
2022/11/09 04:06:30;;;;;;;2.03;0.30;;;;;;;10.25;72.15;100458.75;4981834;28;20125;-47
2022/11/09 04:08:56;;;;;;;1.10;0.50;;;;;;;10.06;72.76;100462.31;4992452;28;20037;-47
2022/11/09 04:11:23;;;;;;;2.17;0.40;;;;;;;10.05;73.05;100468.72;4992235;28;20037;-47
2022/11/09 04:13:49;;;;;;;3.03;0.30;;;;;;;10.19;71.83;100459.59;4988894;28;20038;-48
2022/11/09 04:16:15;;;;;;;0.88;0.25;;;;;;;10.34;71.76;100458.53;4973180;28;20130;-51
2022/11/09 04:18:42;;;;;;;2.83;0.43;;;;;;;10.15;72.22;100468.25;4972926;28;20023;-49
2022/11/09 04:21:08;;;;;;;2.95;0.82;;;;;;;10.14;72.19;100467.41;4972831;28;20094;-52
2022/11/09 04:23:34;;;;;;;1.27;0.70;;;;;;;10.19;72.33;100480.97;4973141;28;20031;-51
2022/11/09 04:26:00;;;;;;;2.30;0.70;;;;;;;10.24;72.09;100494.56;4973086;28;20069;-51
2022/11/09 04:28:27;;;;;;;1.60;0.70;;;;;;;10.24;72.35;100485.72;4972924;28;20034;-50
2022/11/09 04:30:53;;;;;;;1.00;0.60;;;;;;;10.24;72.21;100488.41;4972113;28;20082;-51
2022/11/09 04:33:19;;;;;;;0.65;0.45;;;;;;;10.15;72.55;100498.47;4972820;28;20019;-51
2022/11/09 04:35:45;;;;;;;2.58;0.70;;;;;;;10.16;72.75;100502.81;4972780;28;20368;-51
2022/11/09 04:38:13;;;;;;;0.93;0.45;;;;;;;10.24;72.45;100501.78;4966098;28;20032;-49
2022/11/09 04:40:39;;;;;;;1.20;0.70;;;;;;;10.16;72.46;100505.50;4978252;28;20030;-51
2022/11/09 04:43:09;;;;;;;1.35;0.82;;;;;;;10.18;72.26;100508.78;4990079;28;20030;-51
2022/11/09 04:45:35;;;;;;;1.20;0.80;;;;;;;10.07;72.32;100509.41;4991986;28;20510;-50
2022/11/09 04:48:04;;;;;;;2.83;1.15;;;;;;;10.01;72.13;100505.75;4966058;28;20034;-51
2022/11/09 04:50:31;;;;;;;2.63;1.08;;;;;;;10.00;72.40;100524.66;4982058;28;20045;-52
2022/11/09 04:53:23;;;;;;;2.95;0.60;;;;;;;10.02;72.29;100531.44;4969169;28;20034;-52
2022/11/09 04:55:50;;;;;;;1.25;0.75;;;;;;;9.91;73.29;100533.94;4969483;28;20570;-51
2022/11/09 04:58:16;;;;;;;2.35;0.70;;;;;;;9.92;73.73;100549.75;4971596;28;20483;-52
2022/11/09 05:00:43;;;;;;;2.80;0.80;;;;;;;9.86;74.30;100560.47;4972314;28;20023;-51
2022/11/09 05:03:09;;;;;;;1.48;0.50;;;;;;;9.93;74.39;100564.75;4972600;28;20553;-51
2022/11/09 05:05:37;;;;;;;1.33;0.55;;;;;;;10.01;74.63;100569.09;4965517;28;20026;-50
2022/11/09 05:08:04;;;;;;;3.42;0.70;;;;;;;9.90;74.73;100575.91;4967321;28;20027;-51
2022/11/09 05:10:30;;;;;;;3.05;0.75;;;;;;;9.66;75.92;100582.72;4972143;28;20061;-50
2022/11/09 05:13:02;;;;;;;1.65;0.75;;;;;;;9.66;76.12;100590.72;4968386;28;20027;-49
2022/11/09 05:15:28;;;;;;;2.38;0.98;;;;;;;9.62;76.79;100592.16;4967736;28;20027;-51
2022/11/09 05:17:55;;;;;;;1.85;0.90;;;;;;;9.64;76.53;100597.28;4974386;28;20070;-51
2022/11/09 05:20:22;;;;;;;2.05;0.90;;;;;;;9.73;75.89;100593.38;4966029;28;20503;-48
2022/11/09 05:25:33;;;;;;;1.42;0.70;;;;;;;9.84;75.12;100608.00;4970802;28;20030;-50
2022/11/09 05:28:00;;;;;;;2.58;0.70;;;;;;;9.66;75.53;100609.44;4973594;28;20038;-51
2022/11/09 05:30:26;;;;;;;2.05;0.70;;;;;;;9.75;74.86;100618.88;4960605;28;20031;-49
2022/11/09 05:32:52;;;;;;;0.70;0.70;;;;;;;9.70;75.03;100615.16;4971958;28;20082;-51
2022/11/09 05:35:18;;;;;;;1.73;0.65;;;;;;;9.69;74.98;100624.22;4977461;28;20479;-48
2022/11/09 05:37:49;;;;;;;1.60;0.63;;;;;;;9.60;75.40;100631.59;4961565;28;20439;-51
2022/11/09 05:40:16;;;;;;;3.58;0.85;;;;;;;9.48;75.93;100627.91;4969410;28;20045;-51
2022/11/09 05:42:43;;;;;;;1.00;0.65;;;;;;;9.82;75.42;100634.91;4965064;28;20018;-51
2022/11/09 05:45:11;;;;;;;2.30;0.80;;;;;;;9.71;75.24;100633.66;4964171;28;20030;-52
2022/11/09 05:47:39;;;;;;;1.00;0.80;;;;;;;9.69;76.21;100641.06;4969489;28;20035;-52
2022/11/09 05:50:06;;;;;;;1.60;0.85;;;;;;;9.78;76.24;100639.84;4973170;28;20380;-48
2022/11/09 05:52:33;;;;;;;1.73;1.00;;;;;;;9.65;76.16;100642.50;4974342;28;20019;-52
2022/11/09 05:55:01;;;;;;;1.55;1.38;;;;;;;9.62;76.77;100648.28;4973187;28;20050;-51
2022/11/09 05:57:28;;;;;;;2.95;1.33;;;;;;;9.64;77.01;100658.75;4973676;28;20033;-52
2022/11/09 05:59:54;;;;;;;3.80;1.55;;;;;;;9.84;76.45;100672.13;4972136;28;20105;-50
2022/11/09 06:02:21;;;;;;;2.95;1.30;;;;;;;9.72;76.88;100678.09;4970800;28;20027;-52
2022/11/09 06:04:47;;;;;;;3.58;1.55;;;;;;;9.58;77.63;100676.41;4975157;28;20033;-52
2022/11/09 06:07:14;;;;;;;3.45;1.60;;;;;;;9.84;77.07;100677.50;4973289;28;20034;-49
2022/11/09 06:09:40;;;;;;;2.67;2.15;;;;;;;9.75;76.97;100679.53;4971969;28;20101;-52
2022/11/09 06:12:06;;;;;;;1.77;1.27;;;;;;;9.83;76.51;100678.50;4973137;28;20110;-51
2022/11/09 06:14:32;;;;;;;2.55;1.15;;;;;;;9.81;76.65;100686.72;4973639;28;20039;-51
2022/11/09 06:16:59;;;;;;;2.25;1.45;;;;;;;9.65;76.34;100689.78;4971806;28;20088;-52
2022/11/09 06:19:25;;;;;;;2.50;1.10;;;;;;;9.52;76.75;100694.09;4973425;28;20426;-51
2022/11/09 06:21:51;;;;;;;2.60;1.50;;;;;;;9.46;76.78;100694.09;4972808;28;20029;-51
2022/11/09 06:24:17;;;;;;;3.35;1.60;;;;;;;9.43;76.69;100697.16;4972901;28;20546;-52
2022/11/09 06:26:43;;;;;;;2.13;1.15;;;;;;;9.31;77.06;100701.44;4972662;28;20042;-50
2022/11/09 06:29:09;;;;;;;3.28;1.40;;;;;;;9.24;77.10;100712.09;4971190;28;20035;-51
2022/11/09 06:31:36;;;;;;;4.90;1.13;;;;;;;9.24;77.01;100712.09;4972811;28;20031;-52
2022/11/09 06:34:03;;;;;;;1.85;1.40;;;;;;;9.29;76.93;100711.50;4972673;28;20034;-52
2022/11/09 06:36:29;;;;;;;3.53;1.13;;;;;;;9.22;76.58;100720.31;4972481;28;20027;-52
2022/11/09 06:38:55;;;;;;;3.53;1.05;;;;;;;9.14;76.69;100723.16;4972168;28;20415;-51
2022/11/09 06:41:21;;;;;;;2.42;1.20;;;;;;;9.21;76.41;100723.16;4956833;28;20027;-52
2022/11/09 06:43:48;;;;;;;2.42;1.20;;;;;;;9.13;76.46;100731.38;4960634;28;20211;-48
2022/11/09 06:46:19;;;;;;;3.22;1.30;;;;;;;9.11;76.34;100734.25;4970525;28;20120;-46
2022/11/09 06:48:46;;;;;;;3.47;1.48;;;;;;;9.04;76.47;100736.03;4953210;28;20432;-52
2022/11/09 06:51:12;;;;;;;3.47;1.40;;;;;;;8.86;77.21;100731.22;4954106;28;20090;-48
2022/11/09 06:53:40;;;;;;;2.10;1.33;;;;;;;8.90;76.84;100739.69;4971246;28;20053;-51
2022/11/09 06:56:08;;;;;;;3.15;1.30;;;;;;;8.89;76.55;100740.72;4961069;28;20082;-49
2022/11/09 06:58:34;;;;;;;2.25;1.40;;;;;;;8.84;76.11;100743.13;4972156;28;20114;-56
2022/11/09 07:01:09;;;;;;;3.55;1.13;;;;;;;8.78;76.50;100746.59;4971489;28;20062;-52
2022/11/09 07:03:36;;;;;;;4.60;1.60;;;;;;;8.87;76.19;100753.41;4972741;28;20546;-53
2022/11/09 07:06:07;;;;;;;3.72;1.27;;;;;;;8.75;76.30;100754.97;4971001;28;20112;-53
2022/11/09 07:08:34;;;;;;;3.05;1.27;;;;;;;8.78;76.77;100762.63;4971845;28;20030;-52
2022/11/09 07:11:14;;;;;;;1.70;1.27;;;;;;;8.63;77.10;100760.88;4971869;28;20027;-52
2022/11/09 07:13:41;;;;;;;2.45;0.90;;;;;;;8.66;76.85;100771.16;4971758;28;20041;-53
2022/11/09 07:16:07;;;;;;;3.53;1.35;;;;;;;8.64;76.98;100770.50;4972099;28;20026;-52
2022/11/09 07:18:34;;;;;;;5.72;1.45;;;;;;;8.37;79.07;100769.50;4973796;28;20438;-53
2022/11/09 07:21:04;;;;;;;2.97;1.25;;;;;;;8.43;78.80;100767.88;4971142;28;20026;-53
2022/11/09 07:23:30;;;;;;;3.28;1.17;;;;;;;8.57;78.18;100780.31;4972083;28;20038;-52
2022/11/09 07:25:59;;;;;;;5.05;1.17;;;;;;;8.57;78.12;100787.50;4971837;28;20113;-50
2022/11/09 07:28:25;;;;;;;4.47;0.98;;;;;;;8.38;78.97;100796.97;4970401;28;20034;-53
2022/11/09 07:30:51;;;;;;;3.65;1.15;;;;;;;8.48;78.72;100797.47;4970852;28;20065;-52
2022/11/09 07:33:18;;;;;;;1.40;0.80;;;;;;;8.41;78.65;100809.94;4971737;28;20109;-52
2022/11/09 07:35:45;;;;;;;2.63;1.05;;;;;;;8.38;79.08;100804.97;4971930;28;20039;-53
2022/11/09 07:38:14;;;;;;;1.80;0.85;;;;;;;8.39;79.18;100820.81;4964710;28;20424;-50
2022/11/09 07:40:41;;;;;;;3.30;1.10;;;;;;;8.35;79.29;100819.50;4967702;28;20121;-53
2022/11/09 07:43:07;;;;;;;1.60;0.77;;;;;;;8.21;80.60;100829.22;4956651;28;20145;-52
2022/11/09 07:45:35;;;;;;;1.25;0.70;;;;;;;8.42;80.12;100832.94;4972376;28;20065;-52
2022/11/09 07:48:04;;;;;;;3.30;1.10;;;;;;;7.90;nan;100831.38;4971358;28;20066;-53
2022/11/09 07:50:32;;;;;;;2.75;1.33;;;;;;;8.30;81.05;100837.91;4969663;28;20118;-53
2022/11/09 07:53:00;;;;;;;2.47;1.15;;;;;;;8.27;81.40;100840.13;4973060;28;20069;-53
2022/11/09 07:55:28;;;;;;;4.53;1.60;;;;;;;8.49;80.81;100835.66;4970650;28;20051;-54
2022/11/09 07:58:05;;;;;;;3.70;1.90;;;;;;;8.61;80.71;100844.81;4969852;28;20145;-52
2022/11/09 08:00:33;;;;;;;4.13;1.85;;;;;;;8.61;80.62;100850.97;4970899;28;20133;-49
2022/11/09 08:03:00;;;;;;;4.07;1.45;;;;;;;8.61;80.74;100856.28;4970313;28;20039;-53
2022/11/09 08:05:26;;;;;;;1.45;1.20;;;;;;;8.62;80.70;100854.44;4971083;28;20045;-51
2022/11/09 08:08:00;;;;;;;2.95;1.48;;;;;;;8.64;80.88;100861.22;4972952;28;20119;-52
2022/11/09 08:10:28;;;;;;;2.97;1.23;;;;;;;8.64;80.82;100860.41;4970397;28;20042;-53
2022/11/09 08:12:56;;;;;;;5.13;1.77;;;;;;;8.73;80.62;100868.09;4971517;28;20034;-53
2022/11/09 08:15:24;;;;;;;3.03;1.30;;;;;;;8.71;80.75;100867.44;4971714;28;20057;-52
2022/11/09 08:17:50;;;;;;;2.17;1.20;;;;;;;8.76;80.69;100868.72;4970869;28;20031;-53
2022/11/09 08:20:17;;;;;;;2.75;1.08;;;;;;;8.78;80.71;100867.53;4970216;28;20391;-54
2022/11/09 08:22:44;;;;;;;5.05;1.35;;;;;;;8.69;80.88;100876.66;4973161;28;20029;-53
2022/11/09 08:25:12;;;;;;;2.30;1.35;;;;;;;8.71;81.05;100872.78;4971151;28;20045;-53
2022/11/09 08:27:41;;;;;;;3.75;1.33;;;;;;;8.75;80.56;100880.41;4969449;28;20027;-52
2022/11/09 08:30:19;;;;;;;5.88;1.55;;;;;;;8.78;79.98;100885.38;4971491;28;20038;-53
2022/11/09 08:32:47;;;;;;;1.67;1.08;;;;;;;8.73;80.20;100884.09;4971036;28;20099;-54
2022/11/09 08:35:16;;;;;;;2.90;1.30;;;;;;;8.71;79.57;100885.28;4971526;28;20034;-52
2022/11/09 08:37:47;;;;;;;2.83;1.50;;;;;;;8.75;79.08;100889.25;4970320;28;20039;-53
2022/11/09 08:40:15;;;;;;;1.95;1.40;;;;;;;8.74;79.15;100892.94;4956465;28;20387;-53
2022/11/09 08:42:41;;;;;;;1.63;1.30;;;;;;;8.64;79.11;100898.59;4963861;28;20065;-53
2022/11/09 08:45:08;;;;;;;1.65;1.23;;;;;;;8.58;79.05;100899.34;4967694;28;20038;-52
2022/11/09 08:47:35;;;;;;;3.13;1.52;;;;;;;8.58;79.15;100903.88;4971463;28;20027;-52
2022/11/09 08:50:05;;;;;;;3.17;1.20;;;;;;;8.53;78.66;100908.94;4972196;28;20360;-51
2022/11/09 08:52:32;;;;;;;2.50;1.70;;;;;;;8.49;78.90;100913.81;4957493;28;20055;-52
2022/11/09 08:54:58;;;;;;;17.05;2.20;;;;;;;8.43;79.14;100919.94;4971974;28;20042;-52
2022/11/09 08:57:25;;;;;;;3.45;2.05;;;;;;;8.54;78.51;100918.59;4968258;28;20395;-52
2022/11/09 08:59:51;;;;;;;4.35;1.75;;;;;;;8.64;78.94;100913.78;4970261;28;20114;-50
2022/11/09 09:02:18;;;;;;;3.28;1.85;;;;;;;8.50;79.31;100920.84;4968994;28;20038;-52
2022/11/09 09:04:44;;;;;;;3.55;1.65;;;;;;;8.50;79.58;100920.84;4975550;28;20475;-52
2022/11/09 09:07:11;;;;;;;2.08;1.38;;;;;;;8.72;79.22;100922.50;4974585;28;20043;-49
2022/11/09 09:09:38;;;;;;;5.53;1.50;;;;;;;8.57;79.57;100927.06;4974361;28;20035;-50
2022/11/09 09:12:06;;;;;;;1.77;0.90;;;;;;;8.64;79.76;100935.94;4974538;28;20518;-49
2022/11/09 09:14:33;;;;;;;3.50;1.13;;;;;;;8.71;79.16;100942.16;4975940;28;20037;-51
2022/11/09 09:16:59;;;;;;;2.45;1.08;;;;;;;8.63;79.77;100944.97;4972638;28;20031;-52
2022/11/09 09:19:25;;;;;;;2.58;1.10;;;;;;;8.64;80.14;100949.28;4976058;28;20475;-50
2022/11/09 09:21:51;;;;;;;2.40;1.05;;;;;;;8.59;80.39;100946.34;4973811;28;20037;-52
2022/11/09 09:24:18;;;;;;;2.42;1.08;;;;;;;8.59;80.66;100943.69;4974389;28;20110;-52
2022/11/09 09:26:44;;;;;;;3.90;1.27;;;;;;;8.86;80.18;100943.94;4972506;28;20506;-51
2022/11/09 09:29:12;;;;;;;3.15;1.30;;;;;;;8.84;80.29;100952.16;4973377;28;20066;-50
2022/11/09 09:31:39;;;;;;;4.65;1.48;;;;;;;8.68;80.58;100947.06;4972895;28;20452;-49
2022/11/09 09:34:05;;;;;;;2.88;1.10;;;;;;;8.65;81.01;100948.25;4975365;28;20030;-50
2022/11/09 09:36:31;;;;;;;2.35;1.52;;;;;;;8.59;80.85;100943.69;4973924;28;20038;-52
2022/11/09 09:38:57;;;;;;;9.73;2.10;;;;;;;8.58;80.66;100952.72;4971645;28;20169;-49
2022/11/09 09:41:36;;;;;;;5.53;1.90;;;;;;;8.58;80.88;100957.22;4969399;28;20034;-51
2022/11/09 09:44:18;;;;;;;4.07;1.55;;;;;;;8.53;81.37;100957.78;4973762;28;20026;-49
2022/11/09 09:47:16;;;;;;;3.78;1.90;;;;;;;8.83;80.27;100965.66;4970016;28;20442;-52
2022/11/09 09:50:01;;;;;;;3.20;1.50;;;;;;;8.81;79.43;100968.53;4968727;28;20078;-51
2022/11/09 09:52:53;;;;;;;3.63;1.85;;;;;;;8.64;80.10;100985.81;4975020;28;20479;-51
2022/11/09 09:55:29;;;;;;;5.80;1.67;;;;;;;8.49;80.16;100985.84;4973010;28;20047;-50
2022/11/09 09:58:03;;;;;;;1.95;1.00;;;;;;;8.46;80.02;100987.06;4962055;28;20472;-53
2022/11/09 10:00:32;;;;;;;5.70;1.05;;;;;;;8.44;79.87;101004.28;4967905;28;20030;-50
2022/11/09 10:03:00;;;;;;;3.45;1.20;;;;;;;8.35;80.05;101006.19;4973787;28;20023;-51
2022/11/09 10:05:41;;;;;;;2.50;1.08;;;;;;;8.31;79.84;101002.25;4973956;28;20060;-53
2022/11/09 10:08:33;;;;;;;2.97;0.77;;;;;;;8.27;79.70;101008.97;4975095;28;20039;-52
2022/11/09 10:11:22;;;;;;;2.53;0.82;;;;;;;8.19;79.57;101012.56;4957617;28;20045;-50
2022/11/09 10:14:07;;;;;;;3.00;1.15;;;;;;;8.13;79.62;101007.97;4973610;28;20495;-49
2022/11/09 10:16:51;;;;;;;2.83;0.90;;;;;;;8.11;79.46;101015.34;4973736;28;20114;-50
2022/11/09 10:19:46;;;;;;;4.38;1.00;;;;;;;7.91;80.02;101019.59;4973314;28;20027;-50
2022/11/09 10:22:24;;;;;;;2.47;1.27;;;;;;;7.89;80.24;101016.28;4973034;28;20039;-52
2022/11/09 10:25:36;;;;;;;2.38;1.20;;;;;;;7.97;81.72;101018.84;4973159;28;20038;-50
2022/11/09 10:28:09;;;;;;;1.95;0.93;;;;;;;8.02;80.14;101024.44;4962816;28;20367;-51
2022/11/09 10:30:36;;;;;;;3.10;1.27;;;;;;;7.81;80.48;101029.69;4973172;28;20046;-53
2022/11/09 10:33:12;;;;;;;3.53;1.48;;;;;;;7.79;81.34;101037.03;4973026;28;20022;-53
2022/11/09 10:35:46;;;;;;;5.63;1.58;;;;;;;7.87;80.69;101043.09;4971705;28;20042;-50
2022/11/09 10:38:19;;;;;;;4.50;1.17;;;;;;;8.03;80.59;101047.41;4974497;28;20035;-51
2022/11/09 10:41:13;;;;;;;3.30;1.23;;;;;;;7.97;81.32;101047.34;4972576;28;20495;-49
2022/11/09 10:43:39;;;;;;;3.17;1.30;;;;;;;7.99;81.02;101058.63;4955174;28;20054;-52
2022/11/09 10:46:07;;;;;;;3.65;1.38;;;;;;;8.07;81.51;101063.88;4969354;28;20475;-50
2022/11/09 10:48:36;;;;;;;2.00;1.20;;;;;;;7.95;81.22;101063.53;4973105;28;20050;-53
2022/11/09 10:51:03;;;;;;;6.75;1.33;;;;;;;7.69;81.56;101063.94;4970515;28;20080;-52
2022/11/09 10:53:32;;;;;;;1.98;0.90;;;;;;;7.69;81.69;101079.94;4974397;28;20070;-51
2022/11/09 10:56:14;;;;;;;2.28;1.02;;;;;;;7.71;81.23;101077.06;4971457;28;20047;-52
2022/11/09 10:58:48;;;;;;;1.50;1.02;;;;;;;7.58;81.43;101088.34;4971533;28;20489;-50
2022/11/09 11:01:34;;;;;;;1.52;0.68;;;;;;;7.55;81.28;101104.69;4972172;28;20029;-53
2022/11/09 11:04:19;;;;;;;2.85;1.10;;;;;;;7.49;81.39;101100.91;4971163;28;20031;-53
2022/11/09 11:06:46;;;;;;;2.55;1.10;;;;;;;7.39;82.09;101098.50;4967976;28;20038;-54
2022/11/09 11:09:18;;;;;;;3.10;1.38;;;;;;;7.47;81.79;101102.94;4972444;28;20031;-50
2022/11/09 11:11:44;;;;;;;2.72;1.23;;;;;;;7.64;81.08;101115.09;4956921;28;20101;-52
2022/11/09 11:14:15;;;;;;;2.28;1.00;;;;;;;7.51;81.00;101114.06;4972684;28;20034;-53
2022/11/09 11:16:43;;;;;;;3.90;0.90;;;;;;;7.35;81.42;101123.84;4971763;28;20031;-53
2022/11/09 11:19:44;;;;;;;3.38;1.00;;;;;;;7.26;82.49;101132.06;4974183;28;20067;-52
2022/11/09 11:22:10;;;;;;;1.55;0.95;;;;;;;7.26;81.85;101137.38;4960651;28;20399;-52
2022/11/09 11:24:45;;;;;;;3.85;1.00;;;;;;;7.21;81.60;101139.75;4972870;28;20383;-52
2022/11/09 11:27:31;;;;;;;2.05;1.40;;;;;;;7.13;81.92;101138.78;4972188;28;20046;-52
2022/11/09 11:30:14;;;;;;;1.92;0.90;;;;;;;7.17;81.52;101152.59;4972421;28;20041;-53
2022/11/09 11:32:41;;;;;;;1.45;0.90;;;;;;;7.09;81.40;101145.47;4957577;28;20027;-52
2022/11/09 11:35:21;;;;;;;2.35;0.70;;;;;;;7.19;81.09;101157.72;4972322;28;20105;-51
2022/11/09 11:37:53;;;;;;;5.30;1.10;;;;;;;7.11;80.74;101158.63;4973125;28;20027;-52
2022/11/09 11:40:45;;;;;;;3.58;1.40;;;;;;;7.12;80.52;101160.28;4972141;28;20022;-52
2022/11/09 11:43:33;;;;;;;2.30;1.70;;;;;;;7.12;80.85;101165.59;4962478;28;20070;-52